createdAt,value
2022-11-24T00:00:23.441Z,49.30
2022-11-24T00:01:23.419Z,48.60
2022-11-24T00:02:23.545Z,40.30
2022-11-24T00:03:23.546Z,46.10
2022-11-24T00:04:23.381Z,44.40
2022-11-24T00:05:23.363Z,46.70
2022-11-24T00:06:23.361Z,44.70
2022-11-24T00:07:23.347Z,41.40
2022-11-24T00:08:23.331Z,33.40
2022-11-24T00:09:23.321Z,37.10
2022-11-24T00:10:23.301Z,55.60
2022-11-24T00:11:23.281Z,37.20
2022-11-24T00:12:23.273Z,43.80
2022-11-24T00:13:23.259Z,39.40
2022-11-24T00:14:23.265Z,35.40
2022-11-24T00:15:23.245Z,38.70
2022-11-24T00:16:23.277Z,36.90
2022-11-24T00:17:23.202Z,29.70
2022-11-24T00:18:23.194Z,31.10
2022-11-24T00:19:23.192Z,38.60
2022-11-24T00:20:23.163Z,39.60
2022-11-24T00:21:23.159Z,37.20
2022-11-24T00:22:23.141Z,42.60
2022-11-24T00:23:23.122Z,39.10
2022-11-24T00:24:23.130Z,39.80
2022-11-24T00:25:23.092Z,42.50
2022-11-24T00:26:23.083Z,32.60
2022-11-24T00:27:23.072Z,41.70
2022-11-24T00:28:23.059Z,41.50
2022-11-24T00:29:23.062Z,39.40
2022-11-24T00:30:23.032Z,36.50
2022-11-24T00:31:23.112Z,36.90
2022-11-24T00:32:23.011Z,26.90
2022-11-24T00:33:22.985Z,36.60
2022-11-24T00:34:22.993Z,29.80
2022-11-24T00:35:22.961Z,31.90
2022-11-24T00:36:22.943Z,37.60
2022-11-24T00:37:22.934Z,37.90
2022-11-24T00:38:22.925Z,28.10
2022-11-24T00:39:22.925Z,32.20
2022-11-24T00:40:22.893Z,42.60
2022-11-24T00:41:22.874Z,33.20
2022-11-24T00:42:22.872Z,46.60
2022-11-24T00:43:22.853Z,40.90
2022-11-24T00:44:22.856Z,38.40
2022-11-24T00:45:22.825Z,41.10
2022-11-24T00:46:22.913Z,39.70
2022-11-24T00:47:22.883Z,36.50
2022-11-24T00:48:22.786Z,34.20
2022-11-24T00:49:22.793Z,37.70
2022-11-24T00:50:22.755Z,40.10
2022-11-24T00:51:22.744Z,37.90
2022-11-24T00:52:22.747Z,33.80
2022-11-24T00:53:22.716Z,41.10
2022-11-24T00:54:22.725Z,35.30
2022-11-24T00:55:22.686Z,35.30
2022-11-24T00:56:22.687Z,35.80
2022-11-24T00:57:22.667Z,41.10
2022-11-24T00:58:22.656Z,33.80
2022-11-24T00:59:22.655Z,38.40
2022-11-24T01:00:22.625Z,31.70
2022-11-24T01:01:22.641Z,31.40
2022-11-24T01:02:22.648Z,33.90
2022-11-24T01:03:22.586Z,35.20
2022-11-24T01:04:22.585Z,33.30
2022-11-24T01:05:22.554Z,29.00
2022-11-24T01:06:22.547Z,36.50
2022-11-24T01:07:22.597Z,30.60
2022-11-24T01:08:22.516Z,33.10
2022-11-24T01:09:22.516Z,30.00
2022-11-24T01:10:22.487Z,33.80
2022-11-24T01:11:22.474Z,34.20
2022-11-24T01:12:22.463Z,36.70
2022-11-24T01:13:22.448Z,26.50
2022-11-24T01:14:22.447Z,29.50
2022-11-24T01:15:22.417Z,32.40
2022-11-24T01:16:22.440Z,32.40
2022-11-24T01:17:22.389Z,30.70
2022-11-24T01:18:22.387Z,29.20
2022-11-24T01:19:22.379Z,26.40
2022-11-24T01:20:22.357Z,25.10
2022-11-24T01:21:22.337Z,29.60
2022-11-24T01:22:22.327Z,29.50
2022-11-24T01:23:22.309Z,32.10
2022-11-24T01:24:22.323Z,34.10
2022-11-24T01:25:22.279Z,24.30
2022-11-24T01:26:22.278Z,26.70
2022-11-24T01:27:22.260Z,28.80
2022-11-24T01:28:22.249Z,25.60
2022-11-24T01:29:22.250Z,23.30
2022-11-24T01:30:22.218Z,22.20
2022-11-24T01:31:22.230Z,18.20
2022-11-24T01:32:22.190Z,23.00
2022-11-24T01:33:22.168Z,23.50
2022-11-24T01:34:22.186Z,28.00
2022-11-24T01:35:22.149Z,24.60
2022-11-24T01:36:22.144Z,26.90
2022-11-24T01:37:22.121Z,27.20
2022-11-24T01:38:22.109Z,27.80
2022-11-24T01:39:22.109Z,26.20
2022-11-24T01:40:22.081Z,27.70
2022-11-24T01:41:22.067Z,23.80
2022-11-24T01:42:22.059Z,25.10
2022-11-24T01:43:22.040Z,26.60
2022-11-24T01:44:22.048Z,20.90
2022-11-24T01:45:22.011Z,29.20
2022-11-24T01:46:22.082Z,22.70
2022-11-24T01:47:22.022Z,33.40
2022-11-24T01:48:25.952Z,24.20
2022-11-24T01:49:22.979Z,26.50
2022-11-24T01:50:21.953Z,25.50
2022-11-24T01:51:21.932Z,32.50
2022-11-24T01:52:21.922Z,23.30
2022-11-24T01:53:21.900Z,24.20
2022-11-24T01:54:21.911Z,25.90
2022-11-24T01:55:21.899Z,23.00
2022-11-24T01:56:21.870Z,27.70
2022-11-24T01:57:21.851Z,31.10
2022-11-24T01:58:21.842Z,25.90
2022-11-24T01:59:21.841Z,24.70
2022-11-24T02:00:21.821Z,23.00
2022-11-24T02:01:21.895Z,25.40
2022-11-24T02:02:21.852Z,28.80
2022-11-24T02:03:21.768Z,24.50
2022-11-24T02:04:21.772Z,28.90
2022-11-24T02:05:21.742Z,26.80
2022-11-24T02:06:21.732Z,25.40
2022-11-24T02:07:21.745Z,23.70
2022-11-24T02:08:21.703Z,25.40
2022-11-24T02:09:21.706Z,26.40
2022-11-24T02:10:21.681Z,18.10
2022-11-24T02:11:21.660Z,26.90
2022-11-24T02:12:21.654Z,25.00
2022-11-24T02:13:21.631Z,28.50
2022-11-24T02:14:21.652Z,18.60
2022-11-24T02:15:21.604Z,30.20
2022-11-24T02:16:21.604Z,24.90
2022-11-24T02:17:21.575Z,20.80
2022-11-24T02:18:21.569Z,24.90
2022-11-24T02:19:21.573Z,24.20
2022-11-24T02:20:21.542Z,24.30
2022-11-24T02:21:21.523Z,27.00
2022-11-24T02:22:21.513Z,18.00
2022-11-24T02:23:21.493Z,23.50
2022-11-24T02:24:21.505Z,24.10
2022-11-24T02:25:21.473Z,25.10
2022-11-24T02:26:21.455Z,24.20
2022-11-24T02:27:21.444Z,26.80
2022-11-24T02:28:21.424Z,21.50
2022-11-24T02:29:21.436Z,33.10
2022-11-24T02:30:21.402Z,26.80
2022-11-24T02:31:21.494Z,18.70
2022-11-24T02:32:21.373Z,22.80
2022-11-24T02:33:21.365Z,22.50
2022-11-24T02:34:21.375Z,24.40
2022-11-24T02:35:21.346Z,22.30
2022-11-24T02:36:21.322Z,26.30
2022-11-24T02:37:21.315Z,27.70
2022-11-24T02:38:21.297Z,24.70
2022-11-24T02:39:21.322Z,22.50
2022-11-24T02:40:21.265Z,26.10
2022-11-24T02:41:21.255Z,24.00
2022-11-24T02:42:21.235Z,22.30
2022-11-24T02:43:21.226Z,26.80
2022-11-24T02:44:21.226Z,27.90
2022-11-24T02:45:21.203Z,25.00
2022-11-24T02:46:21.247Z,24.10
2022-11-24T02:47:21.174Z,33.10
2022-11-24T02:48:21.156Z,22.80
2022-11-24T02:49:21.165Z,25.40
2022-11-24T02:50:21.132Z,20.20
2022-11-24T02:51:21.140Z,22.90
2022-11-24T02:52:21.107Z,28.30
2022-11-24T02:53:21.108Z,27.60
2022-11-24T02:54:21.093Z,28.60
2022-11-24T02:55:21.077Z,21.60
2022-11-24T02:56:21.059Z,24.80
2022-11-24T02:57:21.038Z,26.60
2022-11-24T02:58:21.028Z,24.60
2022-11-24T02:59:21.038Z,32.30
2022-11-24T03:00:20.991Z,23.50
2022-11-24T03:01:21.022Z,27.60
2022-11-24T03:02:21.009Z,25.10
2022-11-24T03:03:20.957Z,25.50
2022-11-24T03:04:20.957Z,26.70
2022-11-24T03:05:20.930Z,30.20
2022-11-24T03:06:20.907Z,21.40
2022-11-24T03:07:20.946Z,27.60
2022-11-24T03:08:20.890Z,23.90
2022-11-24T03:09:20.896Z,35.00
2022-11-24T03:10:29.599Z,22.40
2022-11-24T03:11:21.609Z,30.10
2022-11-24T03:12:20.838Z,29.90
2022-11-24T03:13:20.818Z,28.30
2022-11-24T03:14:20.828Z,25.20
2022-11-24T03:15:20.808Z,26.20
2022-11-24T03:16:20.801Z,31.20
2022-11-24T03:17:20.771Z,24.90
2022-11-24T03:18:20.759Z,35.00
2022-11-24T03:19:20.759Z,26.80
2022-11-24T03:20:20.730Z,28.40
2022-11-24T03:21:20.710Z,25.50
2022-11-24T03:22:20.726Z,27.80
2022-11-24T03:23:20.722Z,24.80
2022-11-24T03:24:20.738Z,26.10
2022-11-24T03:25:20.681Z,22.50
2022-11-24T03:26:20.652Z,22.80
2022-11-24T03:27:20.652Z,28.80
2022-11-24T03:28:20.639Z,30.80
2022-11-24T03:29:20.627Z,29.20
2022-11-24T03:30:20.610Z,32.50
2022-11-24T03:31:20.661Z,25.30
2022-11-24T03:32:20.570Z,23.70
2022-11-24T03:33:20.560Z,32.20
2022-11-24T03:34:20.554Z,20.60
2022-11-24T03:35:20.540Z,26.80
2022-11-24T03:36:20.516Z,27.60
2022-11-24T03:37:20.501Z,26.80
2022-11-24T03:38:20.494Z,29.40
2022-11-24T03:39:20.502Z,30.70
2022-11-24T03:40:20.467Z,29.60
2022-11-24T03:41:20.475Z,33.50
2022-11-24T03:42:20.441Z,24.70
2022-11-24T03:43:20.426Z,28.00
2022-11-24T03:44:20.438Z,27.00
2022-11-24T03:45:45.017Z,25.30
2022-11-24T03:46:21.400Z,27.20
2022-11-24T03:47:20.384Z,27.40
2022-11-24T03:48:20.359Z,23.90
2022-11-24T03:49:20.366Z,24.80
2022-11-24T03:50:20.323Z,24.30
2022-11-24T03:51:20.311Z,29.70
2022-11-24T03:52:20.293Z,33.60
2022-11-24T03:53:20.322Z,24.90
2022-11-24T03:54:20.318Z,28.60
2022-11-24T03:55:20.256Z,22.60
2022-11-24T03:56:20.251Z,27.20
2022-11-24T03:57:20.226Z,23.50
2022-11-24T03:58:20.244Z,28.10
2022-11-24T03:59:20.234Z,25.30
2022-11-24T04:00:20.184Z,27.20
2022-11-24T04:01:20.232Z,26.80
2022-11-24T04:02:20.192Z,32.30
2022-11-24T04:03:20.156Z,31.90
2022-11-24T04:04:20.173Z,23.00
2022-11-24T04:05:20.132Z,31.10
2022-11-24T04:06:20.102Z,29.50
2022-11-24T04:07:20.189Z,31.80
2022-11-24T04:08:20.091Z,29.70
2022-11-24T04:09:20.141Z,23.50
2022-11-24T04:10:20.047Z,29.90
2022-11-24T04:11:20.055Z,28.50
2022-11-24T04:12:20.044Z,25.80
2022-11-24T04:13:20.029Z,26.60
2022-11-24T04:14:20.028Z,28.60
2022-11-24T04:15:20.007Z,26.90
2022-11-24T04:16:20.038Z,33.50
2022-11-24T04:17:19.957Z,33.00
2022-11-24T04:18:19.943Z,28.70
2022-11-24T04:19:19.961Z,26.00
2022-11-24T04:20:19.934Z,23.20
2022-11-24T04:21:19.897Z,29.80
2022-11-24T04:22:19.884Z,28.20
2022-11-24T04:23:19.904Z,29.80
2022-11-24T04:24:19.867Z,30.50
2022-11-24T04:25:19.869Z,28.90
2022-11-24T04:26:19.851Z,22.90
2022-11-24T04:27:19.844Z,30.60
2022-11-24T04:28:19.834Z,27.30
2022-11-24T04:29:19.797Z,24.60
2022-11-24T04:30:19.799Z,26.00
2022-11-24T04:31:19.815Z,29.50
2022-11-24T04:32:19.768Z,29.90
2022-11-24T04:33:19.738Z,69.10
2022-11-24T04:34:19.730Z,42.10
2022-11-24T04:35:19.735Z,31.70
2022-11-24T04:36:19.697Z,29.30
2022-11-24T04:37:19.690Z,42.10
2022-11-24T04:39:19.375Z,31.80
2022-11-24T04:39:25.474Z,36.00
2022-11-24T04:40:20.684Z,31.50
2022-11-24T04:41:19.630Z,118.50
2022-11-24T04:42:19.658Z,137.50
2022-11-24T04:43:19.600Z,94.40
2022-11-24T04:44:19.628Z,40.30
2022-11-24T04:45:19.579Z,47.20
2022-11-24T04:46:19.588Z,39.10
2022-11-24T04:47:19.591Z,99.10
2022-11-24T04:48:19.571Z,38.30
2022-11-24T04:49:19.540Z,39.10
2022-11-24T04:50:19.522Z,30.80
2022-11-24T04:51:19.514Z,32.90
2022-11-24T04:52:19.497Z,34.20
2022-11-24T04:53:19.472Z,36.70
2022-11-24T04:54:19.509Z,37.50
2022-11-24T04:55:19.451Z,38.80
2022-11-24T04:56:19.430Z,32.10
2022-11-24T04:57:19.450Z,31.50
2022-11-24T04:58:19.392Z,39.40
2022-11-24T04:59:19.430Z,32.60
2022-11-24T05:00:19.390Z,33.60
2022-11-24T05:01:19.444Z,37.50
2022-11-24T05:02:19.376Z,32.10
2022-11-24T05:03:19.335Z,36.00
2022-11-24T05:04:19.344Z,29.20
2022-11-24T05:05:19.340Z,41.20
2022-11-24T05:06:19.295Z,38.00
2022-11-24T05:07:19.598Z,46.90
2022-11-24T05:08:19.262Z,35.60
2022-11-24T05:09:19.304Z,44.00
2022-11-24T05:10:19.234Z,37.70
2022-11-24T05:11:19.237Z,35.30
2022-11-24T05:12:19.227Z,35.90
2022-11-24T05:13:19.199Z,37.80
2022-11-24T05:14:19.241Z,37.50
2022-11-24T05:15:19.173Z,35.30
2022-11-24T05:16:19.168Z,37.30
2022-11-24T05:17:19.154Z,31.10
2022-11-24T05:18:19.132Z,42.60
2022-11-24T05:19:19.124Z,39.40
2022-11-24T05:20:19.095Z,36.40
2022-11-24T05:21:19.096Z,39.90
2022-11-24T05:22:19.076Z,27.90
2022-11-24T05:23:19.068Z,32.60
2022-11-24T05:24:19.065Z,36.60
2022-11-24T05:25:19.034Z,33.90
2022-11-24T05:26:19.025Z,32.00
2022-11-24T05:27:19.016Z,30.80
2022-11-24T05:28:18.988Z,38.40
2022-11-24T05:29:18.991Z,34.60
2022-11-24T05:30:18.985Z,71.60
2022-11-24T05:31:19.022Z,75.40
2022-11-24T05:32:18.950Z,34.00
2022-11-24T05:33:19.003Z,33.80
2022-11-24T05:34:18.937Z,40.30
2022-11-24T05:35:18.928Z,31.50
2022-11-24T05:36:18.910Z,31.60
2022-11-24T05:37:18.886Z,37.00
2022-11-24T05:38:18.867Z,42.80
2022-11-24T05:39:18.859Z,36.60
2022-11-24T05:40:18.861Z,32.80
2022-11-24T05:41:18.829Z,25.60
2022-11-24T05:42:18.808Z,36.80
2022-11-24T05:43:18.796Z,38.40
2022-11-24T05:44:18.780Z,35.50
2022-11-24T05:45:18.798Z,37.70
2022-11-24T05:46:18.782Z,30.10
2022-11-24T05:47:18.748Z,31.70
2022-11-24T05:48:18.737Z,107.00
2022-11-24T05:49:18.727Z,118.30
2022-11-24T05:50:18.717Z,36.00
2022-11-24T05:51:18.716Z,38.20
2022-11-24T05:52:18.677Z,39.40
2022-11-24T05:53:18.674Z,29.60
2022-11-24T05:54:18.651Z,28.50
2022-11-24T05:55:18.679Z,38.50
2022-11-24T05:56:18.620Z,37.40
2022-11-24T05:57:18.613Z,36.00
2022-11-24T05:58:18.605Z,34.40
2022-11-24T05:59:18.580Z,32.20
2022-11-24T06:00:18.610Z,35.20
2022-11-24T06:01:18.613Z,28.50
2022-11-24T06:02:18.591Z,43.20
2022-11-24T06:03:18.662Z,38.20
2022-11-24T06:04:18.549Z,35.90
2022-11-24T06:05:18.529Z,35.90
2022-11-24T06:06:18.501Z,31.10
2022-11-24T06:07:18.557Z,36.00
2022-11-24T06:08:18.460Z,32.80
2022-11-24T06:09:18.473Z,22.60
2022-11-24T06:10:18.505Z,44.10
2022-11-24T06:11:18.424Z,33.00
2022-11-24T06:12:18.401Z,23.70
2022-11-24T06:13:18.484Z,34.40
2022-11-24T06:14:18.382Z,30.00
2022-11-24T06:15:18.384Z,31.30
2022-11-24T06:16:18.413Z,31.10
2022-11-24T06:17:18.360Z,47.00
2022-11-24T06:18:18.322Z,43.30
2022-11-24T06:19:18.311Z,52.80
2022-11-24T06:20:18.313Z,26.20
2022-11-24T06:21:18.283Z,34.90
2022-11-24T06:22:18.274Z,44.20
2022-11-24T06:23:18.273Z,36.40
2022-11-24T06:24:18.273Z,28.20
2022-11-24T06:25:18.260Z,31.70
2022-11-24T06:26:18.213Z,29.70
2022-11-24T06:27:18.206Z,31.80
2022-11-24T06:28:18.190Z,28.20
2022-11-24T06:29:18.182Z,20.80
2022-11-24T06:30:18.183Z,27.30
2022-11-24T06:31:18.215Z,21.00
2022-11-24T06:32:18.146Z,25.20
2022-11-24T06:33:18.123Z,27.40
2022-11-24T06:34:18.147Z,22.50
2022-11-24T06:35:18.116Z,30.30
2022-11-24T06:36:18.107Z,23.30
2022-11-24T06:37:18.089Z,20.20
2022-11-24T06:38:22.982Z,26.30
2022-11-24T06:39:19.043Z,23.10
2022-11-24T06:40:18.067Z,23.80
2022-11-24T06:41:18.017Z,19.30
2022-11-24T06:42:18.011Z,23.20
2022-11-24T06:43:17.985Z,23.60
2022-11-24T06:44:17.987Z,23.30
2022-11-24T06:45:17.987Z,24.10
2022-11-24T06:46:17.999Z,25.30
2022-11-24T06:47:17.935Z,24.20
2022-11-24T06:48:17.933Z,21.30
2022-11-24T06:49:17.905Z,22.50
2022-11-24T06:50:17.925Z,18.80
2022-11-24T06:51:17.876Z,17.90
2022-11-24T06:52:17.898Z,19.70
2022-11-24T06:53:17.875Z,11.60
2022-11-24T06:54:17.846Z,14.60
2022-11-24T06:55:17.836Z,18.60
2022-11-24T06:56:17.820Z,17.80
2022-11-24T06:57:17.817Z,19.10
2022-11-24T06:58:17.807Z,17.40
2022-11-24T06:59:17.788Z,14.70
2022-11-24T07:00:17.797Z,13.80
2022-11-24T07:01:17.825Z,16.40
2022-11-24T07:02:17.772Z,17.80
2022-11-24T07:03:17.788Z,15.30
2022-11-24T07:04:17.718Z,15.30
2022-11-24T07:05:17.728Z,14.70
2022-11-24T07:06:17.720Z,13.60
2022-11-24T07:07:17.709Z,14.60
2022-11-24T07:08:18.197Z,17.40
2022-11-24T07:09:17.651Z,11.50
2022-11-24T07:10:17.669Z,12.30
2022-11-24T07:11:17.618Z,13.20
2022-11-24T07:12:17.630Z,10.80
2022-11-24T07:13:17.609Z,10.20
2022-11-24T07:14:17.579Z,10.80
2022-11-24T07:15:17.572Z,10.80
2022-11-24T07:16:17.651Z,8.70
2022-11-24T07:17:17.551Z,11.50
2022-11-24T07:18:17.530Z,11.70
2022-11-24T07:19:23.149Z,8.60
2022-11-24T07:20:18.511Z,10.80
2022-11-24T07:21:17.501Z,6.30
2022-11-24T07:22:17.468Z,7.00
2022-11-24T07:23:17.451Z,8.50
2022-11-24T07:24:17.469Z,10.30
2022-11-24T07:25:17.426Z,7.30
2022-11-24T07:26:17.440Z,6.30
2022-11-24T07:27:17.426Z,6.70
2022-11-24T07:28:17.403Z,5.10
2022-11-24T07:29:17.389Z,7.70
2022-11-24T07:30:17.369Z,7.20
2022-11-24T07:31:17.431Z,5.40
2022-11-24T07:32:17.416Z,6.80
2022-11-24T07:33:17.338Z,5.30
2022-11-24T07:34:17.302Z,5.20
2022-11-24T07:35:17.291Z,6.70
2022-11-24T07:36:17.303Z,7.00
2022-11-24T07:37:17.272Z,6.90
2022-11-24T07:38:17.283Z,7.80
2022-11-24T07:39:17.241Z,8.40
2022-11-24T07:40:17.243Z,5.90
2022-11-24T07:41:17.231Z,4.40
2022-11-24T07:42:17.202Z,6.10
2022-11-24T07:43:20.124Z,5.20
2022-11-24T07:44:17.197Z,6.30
2022-11-24T07:45:17.165Z,5.60
2022-11-24T07:46:17.292Z,7.70
2022-11-24T07:47:17.152Z,5.10
2022-11-24T07:48:17.123Z,3.50
2022-11-24T07:49:17.113Z,11.30
2022-11-24T07:50:17.112Z,5.80
2022-11-24T07:51:17.101Z,6.90
2022-11-24T07:52:17.083Z,4.80
2022-11-24T07:53:17.044Z,5.20
2022-11-24T07:54:17.053Z,7.00
2022-11-24T07:55:17.056Z,3.30
2022-11-24T07:56:17.034Z,7.90
2022-11-24T07:57:17.003Z,7.40
2022-11-24T07:58:16.993Z,6.00
2022-11-24T07:59:16.973Z,7.20
2022-11-24T08:00:16.967Z,6.10
2022-11-24T08:01:17.058Z,3.70
2022-11-24T08:02:16.936Z,6.20
2022-11-24T08:03:16.944Z,3.40
2022-11-24T08:04:16.924Z,4.70
2022-11-24T08:05:16.916Z,6.00
2022-11-24T08:06:27.187Z,8.70
2022-11-24T08:07:17.927Z,6.50
2022-11-24T08:08:16.860Z,5.80
2022-11-24T08:09:16.836Z,8.60
2022-11-24T08:10:16.834Z,5.10
2022-11-24T08:11:16.864Z,6.20
2022-11-24T08:12:16.804Z,7.90
2022-11-24T08:13:16.774Z,6.80
2022-11-24T08:14:16.795Z,6.10
2022-11-24T08:15:16.774Z,5.50
2022-11-24T08:16:16.808Z,8.40
2022-11-24T08:17:16.726Z,6.20
2022-11-24T08:18:16.727Z,8.80
2022-11-24T08:19:16.713Z,5.60
2022-11-24T08:20:16.719Z,10.90
2022-11-24T08:21:16.695Z,8.10
2022-11-24T08:22:16.664Z,9.00
2022-11-24T08:23:16.650Z,10.60
2022-11-24T08:24:16.640Z,8.50
2022-11-24T08:25:16.622Z,9.00
2022-11-24T08:26:16.626Z,8.20
2022-11-24T08:27:16.591Z,10.00
2022-11-24T08:28:16.576Z,9.30
2022-11-24T08:29:16.587Z,6.30
2022-11-24T08:30:16.557Z,8.70
2022-11-24T08:31:16.587Z,8.40
2022-11-24T08:32:21.910Z,11.40
2022-11-24T08:33:17.653Z,8.70
2022-11-24T08:34:16.508Z,7.60
2022-11-24T08:35:16.504Z,8.20
2022-11-24T08:36:16.470Z,10.10
2022-11-24T08:37:16.479Z,10.20
2022-11-24T08:38:16.459Z,10.90
2022-11-24T08:39:16.439Z,14.80
2022-11-24T08:40:16.428Z,10.30
2022-11-24T08:41:16.440Z,13.40
2022-11-24T08:42:16.404Z,10.20
2022-11-24T08:43:16.385Z,10.40
2022-11-24T08:44:16.366Z,9.00
2022-11-24T08:45:20.797Z,10.00
2022-11-24T08:46:17.424Z,12.20
2022-11-24T08:47:16.340Z,12.20
2022-11-24T08:48:16.329Z,9.00
2022-11-24T08:49:16.298Z,8.20
2022-11-24T08:50:16.292Z,10.40
2022-11-24T08:51:16.293Z,12.20
2022-11-24T08:52:16.261Z,13.10
2022-11-24T08:53:16.261Z,10.70
2022-11-24T08:54:16.279Z,9.90
2022-11-24T08:55:16.234Z,15.40
2022-11-24T08:56:16.229Z,12.30
2022-11-24T08:57:21.661Z,10.00
2022-11-24T08:58:17.203Z,15.60
2022-11-24T08:59:16.208Z,14.80
2022-11-24T09:00:16.161Z,13.50
2022-11-24T09:01:16.223Z,13.40
2022-11-24T09:02:16.152Z,11.90
2022-11-24T09:03:16.112Z,14.10
2022-11-24T09:04:16.167Z,13.80
2022-11-24T09:05:43.603Z,13.20
2022-11-24T09:06:17.090Z,13.00
2022-11-24T09:07:16.085Z,14.10
2022-11-24T09:08:16.049Z,12.90
2022-11-24T09:09:16.028Z,12.60
2022-11-24T09:10:16.033Z,13.70
2022-11-24T09:12:27.462Z,11.80
2022-11-24T09:13:27.452Z,12.00
2022-11-24T09:14:25.791Z,13.20
2022-11-24T09:15:25.783Z,15.60
2022-11-24T09:16:25.899Z,15.80
2022-11-24T09:17:25.754Z,12.90
2022-11-24T09:18:30.099Z,18.10
2022-11-24T09:19:25.722Z,15.00
2022-11-24T09:20:25.706Z,14.90
2022-11-24T09:21:25.717Z,15.10
2022-11-24T09:22:25.683Z,13.60
2022-11-24T09:23:25.678Z,15.40
2022-11-24T09:24:25.654Z,19.60
2022-11-24T09:25:25.645Z,18.50
2022-11-24T09:26:25.643Z,14.60
2022-11-24T09:27:25.614Z,17.10
2022-11-24T09:28:25.605Z,15.10
2022-11-24T09:29:25.595Z,15.40
2022-11-24T09:30:25.575Z,18.90
2022-11-24T09:31:25.699Z,13.90
2022-11-24T09:32:25.545Z,13.90
2022-11-24T09:33:25.543Z,14.70
2022-11-24T09:34:25.516Z,16.90
2022-11-24T09:35:25.515Z,14.70
2022-11-24T09:36:25.529Z,15.60
2022-11-24T09:37:29.593Z,14.00
2022-11-24T09:38:26.472Z,9.10
2022-11-24T09:39:25.456Z,12.60
2022-11-24T09:40:25.447Z,14.20
2022-11-24T09:41:25.435Z,13.90
2022-11-24T09:42:25.438Z,13.10
2022-11-24T09:43:25.406Z,14.80
2022-11-24T09:44:25.400Z,12.40
2022-11-24T09:45:49.015Z,11.40
2022-11-24T09:46:26.399Z,14.60
2022-11-24T09:47:25.368Z,13.60
2022-11-24T09:48:25.336Z,10.40
2022-11-24T09:49:25.335Z,12.00
2022-11-24T09:50:25.314Z,17.20
2022-11-24T09:51:25.301Z,13.00
2022-11-24T09:52:25.306Z,12.80
2022-11-24T09:53:25.278Z,18.10
2022-11-24T09:54:25.330Z,13.60
2022-11-24T09:55:25.244Z,14.10
2022-11-24T09:56:25.237Z,15.00
2022-11-24T09:57:25.238Z,14.90
2022-11-24T09:58:25.196Z,10.80
2022-11-24T09:59:25.200Z,11.00
2022-11-24T10:00:25.174Z,13.10
2022-11-24T10:01:25.256Z,13.90
2022-11-24T10:02:25.148Z,12.90
2022-11-24T10:03:25.148Z,10.60
2022-11-24T10:04:25.189Z,16.50
2022-11-24T10:05:25.109Z,11.80
2022-11-24T10:06:25.112Z,16.90
2022-11-24T10:07:25.129Z,12.60
2022-11-24T10:08:25.065Z,13.90
2022-11-24T10:09:25.058Z,16.00
2022-11-24T10:10:25.433Z,16.90
2022-11-24T10:11:25.032Z,12.40
2022-11-24T10:12:25.029Z,15.40
2022-11-24T10:13:25.010Z,18.00
2022-11-24T10:14:24.987Z,13.10
2022-11-24T10:15:24.978Z,15.10
2022-11-24T10:16:25.001Z,17.10
2022-11-24T10:17:24.979Z,17.10
2022-11-24T10:18:24.940Z,14.30
2022-11-24T10:19:34.474Z,13.60
2022-11-24T10:20:25.900Z,15.30
2022-11-24T10:21:24.921Z,15.50
2022-11-24T10:22:24.891Z,14.60
2022-11-24T10:23:24.871Z,16.70
2022-11-24T10:24:24.849Z,15.10
2022-11-24T10:25:24.841Z,13.70
2022-11-24T10:26:24.830Z,14.30
2022-11-24T10:27:24.831Z,19.80
2022-11-24T10:28:24.801Z,13.30
2022-11-24T10:29:24.792Z,11.00
2022-11-24T10:30:24.796Z,13.90
2022-11-24T10:31:24.805Z,15.80
2022-11-24T10:32:24.760Z,14.10
2022-11-24T10:33:30.314Z,13.20
2022-11-24T10:34:25.729Z,15.20
2022-11-24T10:35:24.702Z,14.10
2022-11-24T10:36:24.700Z,19.50
2022-11-24T10:37:24.693Z,14.00
2022-11-24T10:38:24.661Z,10.40
2022-11-24T10:39:24.653Z,16.20
2022-11-24T10:40:55.342Z,16.70
2022-11-24T10:41:25.626Z,12.80
2022-11-24T10:42:24.623Z,15.70
2022-11-24T10:43:24.603Z,17.20
2022-11-24T10:44:24.594Z,13.30
2022-11-24T10:45:24.573Z,10.60
2022-11-24T10:46:24.737Z,12.60
2022-11-24T10:47:24.563Z,19.40
2022-11-24T10:48:24.542Z,15.10
2022-11-24T10:49:24.514Z,14.10
2022-11-24T10:50:24.523Z,16.10
2022-11-24T10:51:24.491Z,12.90
2022-11-24T10:52:24.494Z,14.70
2022-11-24T10:53:24.465Z,18.50
2022-11-24T10:54:24.454Z,13.40
2022-11-24T10:55:24.435Z,15.60
2022-11-24T10:56:24.424Z,14.90
2022-11-24T10:57:24.424Z,19.30
2022-11-24T10:58:24.404Z,18.90
2022-11-24T10:59:24.387Z,17.10
2022-11-24T11:00:24.376Z,20.30
2022-11-24T11:01:24.414Z,15.10
2022-11-24T11:02:24.395Z,15.40
2022-11-24T11:03:24.335Z,17.50
2022-11-24T11:04:24.332Z,14.10
2022-11-24T11:05:24.306Z,13.50
2022-11-24T11:06:24.308Z,14.50
2022-11-24T11:07:24.392Z,21.60
2022-11-24T11:08:24.268Z,18.20
2022-11-24T11:09:24.247Z,18.70
2022-11-24T11:10:24.253Z,19.70
2022-11-24T11:11:24.229Z,19.00
2022-11-24T11:13:25.200Z,15.80
2022-11-24T11:14:24.190Z,13.00
2022-11-24T11:15:24.172Z,13.20
2022-11-24T11:16:24.227Z,17.40
2022-11-24T11:17:24.170Z,15.00
2022-11-24T11:18:24.142Z,18.40
2022-11-24T11:19:47.366Z,12.60
2022-11-24T11:20:25.120Z,17.40
2022-11-24T11:21:24.102Z,15.30
2022-11-24T11:22:24.106Z,20.60
2022-11-24T11:23:24.061Z,15.90
2022-11-24T11:24:24.056Z,19.10
2022-11-24T11:25:24.040Z,17.10
2022-11-24T11:26:24.033Z,12.90
2022-11-24T11:27:24.030Z,16.30
2022-11-24T11:28:24.010Z,14.60
2022-11-24T11:31:24.963Z,18.30
2022-11-24T11:34:30.018Z,21.30
2022-11-24T11:35:24.905Z,21.30
2022-11-24T11:36:23.893Z,14.70
2022-11-24T11:37:23.904Z,16.20
2022-11-24T11:38:23.864Z,21.90
2022-11-24T11:39:23.846Z,23.70
2022-11-24T11:40:23.843Z,18.70
2022-11-24T11:41:23.825Z,14.70
2022-11-24T11:42:53.517Z,21.70
2022-11-24T11:43:24.812Z,19.50
2022-11-24T11:44:23.788Z,13.80
2022-11-24T11:45:23.816Z,21.90
2022-11-24T11:46:23.789Z,17.60
2022-11-24T11:47:23.764Z,19.60
2022-11-24T11:48:23.734Z,18.10
2022-11-24T11:49:23.715Z,16.20
2022-11-24T11:50:23.766Z,17.90
2022-11-24T11:51:24.476Z,14.70
2022-11-24T11:52:23.695Z,16.20
2022-11-24T11:53:23.664Z,15.60
2022-11-24T11:54:23.670Z,19.90
2022-11-24T11:55:23.654Z,22.80
2022-11-24T11:56:23.631Z,20.50
2022-11-24T11:57:23.652Z,17.40
2022-11-24T11:58:23.610Z,15.10
2022-11-24T11:59:23.585Z,12.60
2022-11-24T12:00:23.576Z,13.80
2022-11-24T12:01:23.584Z,23.60
2022-11-24T12:02:23.628Z,18.20
2022-11-24T12:03:23.685Z,20.30
2022-11-24T12:04:23.527Z,11.70
2022-11-24T12:05:23.496Z,18.30
2022-11-24T12:06:23.526Z,19.50
2022-11-24T12:07:23.515Z,15.80
2022-11-24T12:08:23.517Z,21.70
2022-11-24T12:09:23.477Z,19.10
2022-11-24T12:10:23.446Z,17.90
2022-11-24T12:11:23.430Z,19.50
2022-11-24T12:12:23.438Z,18.40
2022-11-24T12:13:23.400Z,22.60
2022-11-24T12:14:23.424Z,14.90
2022-11-24T12:15:23.369Z,12.10
2022-11-24T12:16:23.424Z,18.60
2022-11-24T12:17:23.340Z,20.40
2022-11-24T12:18:55.200Z,22.70
2022-11-24T12:19:24.327Z,24.10
2022-11-24T12:20:23.307Z,16.60
2022-11-24T12:21:26.620Z,16.00
2022-11-24T12:22:23.307Z,14.80
2022-11-24T12:23:23.276Z,20.10
2022-11-24T12:24:23.297Z,14.10
2022-11-24T12:25:23.243Z,15.70
2022-11-24T12:26:23.228Z,19.40
2022-11-24T12:27:23.569Z,21.90
2022-11-24T12:28:23.208Z,18.50
2022-11-24T12:29:23.202Z,20.90
2022-11-24T12:30:23.175Z,17.60
2022-11-24T12:31:23.235Z,21.10
2022-11-24T12:32:23.152Z,21.20
2022-11-24T12:33:23.131Z,20.50
2022-11-24T12:34:23.140Z,16.50
2022-11-24T12:35:23.113Z,16.30
2022-11-24T12:36:23.100Z,19.80
2022-11-24T12:37:23.082Z,21.50
2022-11-24T12:38:23.065Z,18.40
2022-11-24T12:39:23.065Z,18.40
2022-11-24T12:40:23.044Z,19.00
2022-11-24T12:41:41.076Z,17.50
2022-11-24T12:42:24.011Z,18.20
2022-11-24T12:43:23.003Z,21.00
2022-11-24T12:44:23.002Z,20.40
2022-11-24T12:45:22.972Z,20.00
2022-11-24T12:46:22.996Z,18.00
2022-11-24T12:47:22.946Z,15.40
2022-11-24T12:48:22.933Z,18.00
2022-11-24T12:49:22.932Z,16.00
2022-11-24T12:50:22.905Z,15.00
2022-11-24T12:51:22.893Z,18.20
2022-11-24T12:52:22.882Z,18.90
2022-11-24T12:53:22.866Z,16.90
2022-11-24T12:54:22.903Z,18.80
2022-11-24T12:55:22.833Z,15.70
2022-11-24T12:56:22.825Z,24.20
2022-11-24T12:57:22.815Z,16.40
2022-11-24T12:58:22.801Z,21.10
2022-11-24T12:59:22.794Z,16.80
2022-11-24T13:00:22.776Z,15.50
2022-11-24T13:01:22.839Z,21.20